Time;durP1;ratioP1;P1;durP2;ratioP2;P2;SDS_P1;SDS_P2;PMS_P1;PMS_P2;Temp;Humidity;BMP_temperature;BMP_pressure;BME280_temperature;BME280_humidity;BME280_pressure;Samples;Min_cycle;Max_cycle;Signal;HPM_P1;HPM_P2
2022/05/29 00:01:05;;;;;;;9.27;1.30;;;11.00;99.90;;;;;;4232022;28;20077;-85
2022/05/29 00:03:06;;;;;;;7.32;1.63;;;10.50;99.90;;;;;;4250161;27;20514;-85
2022/05/29 00:05:11;;;;;;;10.13;1.63;;;9.90;99.90;;;;;;4230264;28;20043;-86
2022/05/29 00:07:17;;;;;;;15.77;2.78;;;11.80;99.90;;;;;;4249410;27;20031;-86
2022/05/29 00:09:25;;;;;;;9.35;1.73;;;10.60;99.90;;;;;;4212945;28;20044;-85
2022/05/29 00:11:26;;;;;;;8.90;1.52;;;10.80;99.90;;;;;;4239417;27;20061;-85
2022/05/29 00:13:27;;;;;;;5.95;1.52;;;10.70;99.90;;;;;;4231433;28;20119;-85
2022/05/29 00:15:28;;;;;;;11.05;2.38;;;10.50;99.90;;;;;;4231562;28;20054;-85
2022/05/29 00:17:29;;;;;;;12.10;2.25;;;10.90;99.90;;;;;;4231167;28;20531;-85
2022/05/29 00:19:30;;;;;;;5.13;1.33;;;10.50;99.90;;;;;;4213277;28;20469;-85
2022/05/29 00:21:35;;;;;;;9.65;1.40;;;10.70;99.90;;;;;;4213128;28;20153;-86
2022/05/29 00:23:41;;;;;;;8.63;2.25;;;10.70;99.90;;;;;;4196953;28;20118;-86
2022/05/29 00:25:44;;;;;;;11.00;1.92;;;10.70;99.90;;;;;;4231310;28;20422;-85
2022/05/29 00:27:46;;;;;;;13.00;3.25;;;10.70;99.90;;;;;;4212452;28;20052;-86
2022/05/29 00:29:46;;;;;;;8.70;1.70;;;11.10;99.90;;;;;;4212331;28;20054;-86
2022/05/29 00:31:47;;;;;;;15.55;3.25;;;10.80;99.90;;;;;;4212694;28;20063;-85
2022/05/29 00:33:48;;;;;;;11.48;2.00;;;10.70;99.90;;;;;;4212919;28;20197;-86
2022/05/29 00:35:49;;;;;;;6.13;1.70;;;11.80;99.90;;;;;;4212599;28;20128;-86
2022/05/29 00:37:49;;;;;;;5.80;1.42;;;10.80;99.90;;;;;;4212785;28;20056;-85
2022/05/29 00:39:53;;;;;;;14.88;2.92;;;10.70;99.90;;;;;;4230975;28;20477;-85
2022/05/29 00:41:54;;;;;;;11.50;2.33;;;10.70;99.90;;;;;;4231251;28;20047;-85
2022/05/29 00:44:15;;;;;;;16.27;2.63;;;10.70;99.90;;;;;;4230782;28;20043;-85
2022/05/29 00:46:15;;;;;;;13.02;1.90;;;10.70;99.90;;;;;;4233484;28;20043;-85
2022/05/29 00:48:19;;;;;;;10.38;1.80;;;10.90;99.90;;;;;;4230839;28;20556;-86
2022/05/29 00:50:21;;;;;;;10.18;1.73;;;10.70;99.90;;;;;;4212906;28;20381;-85
2022/05/29 00:52:26;;;;;;;8.00;1.73;;;11.70;99.90;;;;;;4231517;28;20043;-86
2022/05/29 00:54:30;;;;;;;5.50;1.60;;;10.80;99.90;;;;;;4231607;28;20046;-86
2022/05/29 00:56:36;;;;;;;9.32;2.60;;;10.70;99.90;;;;;;4214823;28;20885;-86
2022/05/29 00:58:37;;;;;;;14.75;3.03;;;10.70;99.90;;;;;;4233142;28;20040;-85
2022/05/29 01:00:40;;;;;;;13.20;2.22;;;11.10;99.90;;;;;;4233167;28;20475;-86
2022/05/29 01:02:42;;;;;;;10.77;1.60;;;10.90;99.90;;;;;;4233114;28;20380;-85
2022/05/29 01:04:43;;;;;;;10.70;2.22;;;10.80;99.90;;;;;;4241248;28;20095;-84
2022/05/29 01:06:44;;;;;;;14.27;2.35;;;12.10;99.90;;;;;;4250219;28;20094;-84
2022/05/29 01:08:45;;;;;;;8.93;2.15;;;11.30;99.90;;;;;;4216257;28;20063;-84
2022/05/29 01:10:52;;;;;;;6.78;1.60;;;10.70;99.90;;;;;;4249831;28;20040;-85
2022/05/29 01:13:30;;;;;;;10.15;1.50;;;11.10;99.90;;;;;;4250401;28;20044;-85
2022/05/29 01:15:41;;;;;;;9.40;1.45;;;10.70;99.90;;;;;;4193947;28;20055;-85
2022/05/29 01:18:09;;;;;;;7.63;1.30;;;10.70;99.90;;;;;;4213331;28;20115;-85
2022/05/29 01:20:13;;;;;;;4.95;1.52;;;10.70;99.90;;;;;;4231247;28;20079;-85
2022/05/29 01:22:50;;;;;;;7.32;1.33;;;10.70;99.90;;;;;;4230073;28;20077;-85
2022/05/29 01:24:58;;;;;;;11.32;1.70;;;10.70;99.90;;;;;;4213768;28;20127;-85
2022/05/29 01:27:18;;;;;;;9.63;1.95;;;10.60;99.90;;;;;;4242252;28;20080;-85
2022/05/29 01:29:27;;;;;;;5.00;1.30;;;10.70;99.90;;;;;;4247079;28;20100;-85
2022/05/29 01:31:42;;;;;;;9.63;1.75;;;10.50;99.90;;;;;;4248405;28;20463;-85
2022/05/29 01:34:09;;;;;;;5.70;1.67;;;10.60;99.90;;;;;;4248083;28;20539;-85
2022/05/29 01:36:19;;;;;;;9.77;1.90;;;10.50;99.90;;;;;;4192397;28;20048;-84
2022/05/29 01:38:42;;;;;;;8.85;1.60;;;10.70;99.90;;;;;;4229540;28;20055;-84
2022/05/29 01:40:51;;;;;;;9.23;1.60;;;10.60;99.90;;;;;;4229576;28;20050;-85
2022/05/29 01:43:14;;;;;;;16.70;2.85;;;10.60;99.90;;;;;;4231135;28;20047;-86
2022/05/29 01:45:21;;;;;;;13.77;2.28;;;10.70;99.90;;;;;;4215900;28;20051;-85
2022/05/29 01:47:59;;;;;;;6.82;1.80;;;10.70;99.90;;;;;;4251058;27;20047;-85
2022/05/29 01:50:06;;;;;;;10.50;1.87;;;10.70;99.90;;;;;;4218936;28;20051;-85
2022/05/29 01:52:15;;;;;;;8.93;2.25;;;10.70;99.90;;;;;;4250730;27;20388;-85
2022/05/29 01:54:32;;;;;;;11.40;2.33;;;11.30;99.90;;;;;;4232434;28;20538;-85
2022/05/29 01:56:44;;;;;;;7.03;2.17;;;10.70;99.90;;;;;;4232698;28;20044;-86
2022/05/29 01:58:51;;;;;;;14.45;1.83;;;11.20;99.90;;;;;;4232647;28;20051;-85
2022/05/29 02:00:55;;;;;;;10.48;1.80;;;10.60;99.90;;;;;;4250605;27;20047;-85
2022/05/29 02:03:11;;;;;;;10.70;1.65;;;10.60;99.90;;;;;;4250553;27;20039;-85
2022/05/29 02:05:17;;;;;;;3.28;1.27;;;10.70;99.90;;;;;;4232558;28;20048;-85
2022/05/29 02:09:48;;;;;;;6.43;2.10;;;10.70;99.90;;;;;;4250439;27;20055;-85
2022/05/29 02:11:54;;;;;;;5.95;2.55;;;10.40;99.90;;;;;;4219650;28;20090;-85
2022/05/29 02:14:02;;;;;;;8.35;1.88;;;10.60;99.90;;;;;;4215531;28;20081;-85
2022/05/29 02:16:31;;;;;;;8.95;2.00;;;11.00;99.90;;;;;;4198511;28;20127;-85
2022/05/29 02:18:54;;;;;;;5.63;1.30;;;10.70;99.90;;;;;;4211504;28;20134;-85
2022/05/29 02:21:02;;;;;;;5.05;1.38;;;10.70;99.90;;;;;;4215080;28;20063;-85
2022/05/29 02:23:18;;;;;;;8.55;1.33;;;10.80;99.90;;;;;;4215310;28;20052;-85
2022/05/29 02:25:22;;;;;;;5.90;1.40;;;10.90;99.90;;;;;;4233240;28;20047;-86
2022/05/29 02:27:32;;;;;;;12.10;1.50;;;10.70;99.90;;;;;;4215223;28;20536;-86
2022/05/29 02:29:33;;;;;;;7.13;2.13;;;10.70;99.90;;;;;;4214693;28;20048;-84
2022/05/29 02:31:45;;;;;;;7.78;1.63;;;10.70;99.90;;;;;;4233223;28;20058;-86
2022/05/29 02:34:10;;;;;;;7.55;1.50;;;10.70;99.90;;;;;;4233359;28;20073;-85
2022/05/29 02:36:20;;;;;;;11.85;1.90;;;10.70;99.90;;;;;;4215211;28;20130;-85
2022/05/29 02:38:26;;;;;;;9.77;1.85;;;10.80;99.90;;;;;;4197793;28;20122;-84
2022/05/29 02:40:38;;;;;;;8.85;2.05;;;10.70;99.90;;;;;;4232256;28;20573;-84
2022/05/29 02:43:24;;;;;;;7.97;2.35;;;10.70;99.90;;;;;;4215050;28;20081;-85
2022/05/29 02:45:43;;;;;;;8.65;1.17;;;10.70;99.90;;;;;;4194549;28;20056;-85
2022/05/29 02:47:47;;;;;;;9.77;1.45;;;10.60;99.90;;;;;;4233447;28;20051;-85
2022/05/29 02:49:56;;;;;;;5.28;2.38;;;10.60;99.90;;;;;;4233300;28;20400;-85
2022/05/29 02:52:04;;;;;;;7.88;1.92;;;10.90;99.90;;;;;;4232805;28;20483;-85
2022/05/29 02:54:10;;;;;;;5.88;2.13;;;10.50;99.90;;;;;;4232934;28;20051;-85
2022/05/29 02:56:11;;;;;;;10.40;1.45;;;10.70;99.90;;;;;;4233564;28;20495;-85
2022/05/29 02:58:20;;;;;;;12.20;1.65;;;10.50;99.90;;;;;;4233100;28;20040;-85
2022/05/29 03:00:21;;;;;;;8.70;2.22;;;11.40;99.90;;;;;;4232936;28;20047;-85
2022/05/29 03:02:41;;;;;;;10.55;2.03;;;10.50;99.90;;;;;;4233213;28;20039;-85
2022/05/29 03:04:48;;;;;;;8.13;1.58;;;11.00;99.90;;;;;;4217404;28;20048;-85
2022/05/29 03:06:55;;;;;;;15.07;3.47;;;10.50;99.90;;;;;;4234194;28;20046;-85
2022/05/29 03:09:19;;;;;;;12.05;1.90;;;10.50;99.90;;;;;;4232730;28;20526;-85
2022/05/29 03:11:38;;;;;;;11.20;2.58;;;10.50;99.90;;;;;;4223081;28;20048;-85
2022/05/29 03:13:38;;;;;;;;;;;11.00;99.90;;;;;;4236974;28;20093;-85
2022/05/29 03:16:07;;;;;;;10.30;1.38;;;10.40;99.90;;;;;;4214058;28;19926;-85
2022/05/29 03:18:19;;;;;;;9.02;1.38;;;10.40;99.90;;;;;;4231928;28;20093;-85
2022/05/29 03:20:29;;;;;;;8.63;1.90;;;10.40;99.90;;;;;;4232080;28;20149;-85
2022/05/29 03:22:47;;;;;;;7.80;1.85;;;10.40;99.90;;;;;;4232253;28;20051;-85
2022/05/29 03:25:11;;;;;;;8.80;1.88;;;10.40;99.90;;;;;;4231669;28;20139;-85
2022/05/29 03:27:38;;;;;;;4.35;1.05;;;10.40;99.90;;;;;;4245253;27;20081;-85
2022/05/29 03:30:00;;;;;;;7.45;1.20;;;10.40;99.90;;;;;;4249408;27;20051;-85
2022/05/29 03:32:03;;;;;;;4.13;1.30;;;9.90;99.90;;;;;;4230882;28;20043;-85
2022/05/29 03:34:04;;;;;;;6.78;1.13;;;10.40;99.90;;;;;;4213961;28;20056;-85
2022/05/29 03:36:11;;;;;;;16.40;1.30;;;10.50;99.90;;;;;;4249286;27;20050;-85
2022/05/29 03:38:12;;;;;;;12.48;1.58;;;10.40;99.90;;;;;;4248909;27;20424;-84
2022/05/29 03:40:13;;;;;;;6.20;1.30;;;11.00;99.90;;;;;;4248839;27;20047;-84
2022/05/29 03:42:14;;;;;;;5.47;0.93;;;10.40;99.90;;;;;;4248752;27;20498;-85
2022/05/29 03:44:20;;;;;;;15.70;1.77;;;10.60;99.90;;;;;;4249179;27;20571;-86
2022/05/29 03:46:20;;;;;;;8.93;2.05;;;10.00;99.90;;;;;;4248560;27;20126;-84
2022/05/29 03:48:21;;;;;;;5.88;1.95;;;11.10;99.90;;;;;;4248956;27;20054;-85
2022/05/29 03:50:23;;;;;;;10.55;1.58;;;10.20;99.90;;;;;;4213715;28;20122;-85
2022/05/29 03:52:24;;;;;;;10.90;1.77;;;11.10;99.90;;;;;;4248585;27;20066;-85
2022/05/29 03:54:24;;;;;;;8.45;1.20;;;10.40;99.90;;;;;;4248554;27;20053;-85
2022/05/29 03:56:27;;;;;;;9.10;1.73;;;10.50;99.90;;;;;;4248786;27;20043;-85
2022/05/29 03:58:27;;;;;;;6.78;1.75;;;10.70;99.90;;;;;;4248968;27;20043;-85
2022/05/29 04:00:28;;;;;;;14.10;1.80;;;10.50;99.90;;;;;;4248979;27;20046;-85
2022/05/29 04:02:28;;;;;;;10.50;2.38;;;10.40;99.90;;;;;;4248866;27;20119;-85
2022/05/29 04:04:29;;;;;;;12.38;2.15;;;10.40;99.90;;;;;;4248512;27;20530;-84
2022/05/29 04:06:34;;;;;;;9.27;1.63;;;10.40;99.90;;;;;;4248115;27;20058;-85
2022/05/29 04:13:14;;;;;;;8.02;1.50;;;10.30;99.90;;;;;;4231281;28;20427;-85
2022/05/29 04:15:14;;;;;;;10.55;1.38;;;10.40;99.90;;;;;;4231610;28;20040;-85
2022/05/29 04:17:17;;;;;;;8.90;1.45;;;10.40;99.90;;;;;;4231390;28;20047;-85
2022/05/29 04:19:19;;;;;;;9.98;1.92;;;10.50;99.90;;;;;;4231675;28;20039;-85
2022/05/29 04:21:19;;;;;;;11.65;1.80;;;10.50;99.90;;;;;;4231810;28;20124;-85
2022/05/29 04:23:21;;;;;;;5.18;1.25;;;10.50;99.90;;;;;;4231442;28;20055;-84
2022/05/29 04:25:22;;;;;;;11.18;1.90;;;10.50;99.90;;;;;;4231437;28;20062;-84
2022/05/29 04:27:22;;;;;;;14.85;1.25;;;10.40;99.90;;;;;;4213603;28;20122;-85
2022/05/29 04:29:23;;;;;;;12.65;1.80;;;10.50;99.90;;;;;;4231242;28;20407;-86
2022/05/29 04:31:23;;;;;;;9.93;1.58;;;10.50;99.90;;;;;;4231272;28;20503;-86
2022/05/29 04:33:25;;;;;;;13.38;2.10;;;10.40;99.90;;;;;;4231501;28;20079;-85
2022/05/29 04:35:39;;;;;;;9.25;1.42;;;10.40;99.90;;;;;;4231675;28;20043;-84
2022/05/29 04:37:40;;;;;;;11.40;1.88;;;10.60;99.90;;;;;;4231719;28;20074;-85
2022/05/29 04:39:41;;;;;;;8.85;1.80;;;10.40;99.90;;;;;;4230781;28;20039;-85
2022/05/29 04:41:42;;;;;;;8.02;1.10;;;10.40;99.90;;;;;;4234415;28;20075;-85
2022/05/29 04:43:43;;;;;;;8.32;1.63;;;10.40;99.90;;;;;;4231446;28;20070;-86
2022/05/29 04:45:46;;;;;;;8.63;1.77;;;10.40;99.90;;;;;;4231520;28;20047;-85
2022/05/29 04:47:46;;;;;;;10.98;1.50;;;10.40;99.90;;;;;;4231791;28;20079;-85
2022/05/29 04:49:48;;;;;;;11.90;1.98;;;10.40;99.90;;;;;;4231223;28;20051;-85
2022/05/29 04:51:49;;;;;;;10.65;2.38;;;10.40;99.90;;;;;;4231763;28;20040;-85
2022/05/29 04:53:49;;;;;;;12.10;1.20;;;10.60;99.90;;;;;;4213596;28;20062;-85
2022/05/29 04:55:56;;;;;;;9.20;2.00;;;10.40;99.90;;;;;;4231042;28;20140;-85
2022/05/29 04:57:57;;;;;;;12.75;2.33;;;10.50;99.90;;;;;;4231109;28;20044;-86
2022/05/29 04:59:58;;;;;;;7.05;1.50;;;11.00;99.90;;;;;;4231344;28;20045;-87
2022/05/29 05:02:00;;;;;;;17.25;2.58;;;10.50;99.90;;;;;;4231444;28;20075;-86
2022/05/29 05:04:00;;;;;;;11.00;2.13;;;10.50;99.90;;;;;;4230696;28;20086;-85
2022/05/29 05:06:01;;;;;;;11.38;1.48;;;10.40;99.90;;;;;;4231202;28;20043;-85
2022/05/29 05:08:02;;;;;;;10.38;1.92;;;10.60;99.90;;;;;;4231098;28;20052;-85
2022/05/29 05:10:05;;;;;;;7.75;1.30;;;10.60;99.90;;;;;;4231361;28;20047;-86
2022/05/29 05:12:07;;;;;;;11.25;1.65;;;10.60;99.90;;;;;;4230973;28;20484;-85
2022/05/29 05:14:08;;;;;;;14.43;1.67;;;10.70;99.90;;;;;;4231271;28;20043;-86
2022/05/29 05:16:09;;;;;;;11.60;2.25;;;10.70;99.90;;;;;;4232136;28;20480;-85
2022/05/29 05:18:10;;;;;;;10.20;2.00;;;10.70;99.90;;;;;;4234353;28;20131;-85
2022/05/29 05:20:11;;;;;;;7.05;1.55;;;11.20;99.90;;;;;;4233711;28;20050;-86
2022/05/29 05:22:12;;;;;;;6.43;2.10;;;10.70;99.90;;;;;;4234075;28;20121;-86
2022/05/29 05:24:13;;;;;;;13.75;1.75;;;10.70;99.90;;;;;;4233078;28;20470;-86
2022/05/29 05:26:15;;;;;;;7.40;1.50;;;10.80;99.90;;;;;;4237535;27;20054;-86
2022/05/29 05:28:17;;;;;;;16.60;2.10;;;10.70;99.90;;;;;;4250995;27;20644;-86
2022/05/29 05:30:18;;;;;;;13.68;1.92;;;10.70;99.90;;;;;;4251739;27;20471;-86
2022/05/29 05:32:18;;;;;;;11.35;1.67;;;11.00;99.90;;;;;;4251780;27;20122;-87
2022/05/29 05:34:19;;;;;;;13.98;1.58;;;10.70;99.90;;;;;;4251546;27;20193;-86
2022/05/29 05:36:22;;;;;;;14.00;1.95;;;11.00;99.90;;;;;;4251149;27;20065;-85
2022/05/29 05:38:23;;;;;;;15.88;2.65;;;11.00;99.90;;;;;;4251176;27;20368;-85
2022/05/29 05:40:24;;;;;;;12.15;2.50;;;10.70;99.90;;;;;;4251496;27;20104;-86
2022/05/29 05:42:26;;;;;;;11.20;1.67;;;10.80;99.90;;;;;;4249567;27;20027;-86
2022/05/29 05:44:27;;;;;;;10.30;1.77;;;10.80;99.90;;;;;;4250712;27;20054;-87
2022/05/29 05:46:27;;;;;;;10.07;2.03;;;10.90;99.90;;;;;;4250670;27;20399;-86
2022/05/29 05:48:30;;;;;;;10.07;1.92;;;10.80;99.90;;;;;;4233189;28;20051;-86
2022/05/29 05:50:31;;;;;;;9.10;1.83;;;11.10;99.90;;;;;;4231399;28;20271;-85
2022/05/29 05:52:32;;;;;;;11.73;1.45;;;11.00;99.90;;;;;;4251052;27;20046;-86
2022/05/29 05:54:34;;;;;;;10.45;2.45;;;11.10;99.90;;;;;;4249550;27;20479;-86
2022/05/29 05:56:34;;;;;;;13.90;2.42;;;11.20;99.90;;;;;;4235143;28;20051;-83
2022/05/29 05:58:36;;;;;;;9.48;1.80;;;11.10;99.90;;;;;;4246026;28;20403;-84
2022/05/29 06:00:38;;;;;;;10.57;2.10;;;11.20;99.90;;;;;;4239349;28;20488;-83
2022/05/29 06:02:43;;;;;;;11.30;1.88;;;11.20;99.90;;;;;;4242252;28;20047;-83
2022/05/29 06:04:44;;;;;;;11.45;1.98;;;11.30;99.90;;;;;;4226969;28;20440;-82
2022/05/29 06:06:45;;;;;;;9.18;1.52;;;11.30;99.90;;;;;;4245875;28;20044;-83
2022/05/29 06:08:46;;;;;;;13.45;2.00;;;11.20;99.90;;;;;;4246491;28;20043;-83
2022/05/29 06:10:47;;;;;;;9.60;1.55;;;11.30;99.90;;;;;;4250251;27;20035;-83
2022/05/29 06:12:47;;;;;;;7.65;0.98;;;11.40;99.90;;;;;;4266478;27;20039;-83
2022/05/29 06:14:48;;;;;;;7.22;1.10;;;11.50;99.90;;;;;;4267618;27;20043;-83
2022/05/29 06:16:49;;;;;;;7.40;1.42;;;11.60;99.90;;;;;;4266558;27;20066;-84
2022/05/29 06:18:50;;;;;;;6.70;1.17;;;11.50;99.90;;;;;;4257574;27;20054;-84
2022/05/29 06:21:00;;;;;;;9.43;2.17;;;11.50;99.90;;;;;;4238648;28;21211;-84
2022/05/29 06:23:01;;;;;;;8.07;1.23;;;11.50;99.90;;;;;;4240975;28;20103;-84
2022/05/29 06:25:03;;;;;;;7.63;1.30;;;11.50;99.90;;;;;;4240946;28;20043;-83
2022/05/29 06:27:04;;;;;;;7.20;1.20;;;11.50;99.90;;;;;;4236917;28;20042;-83
2022/05/29 06:29:06;;;;;;;8.85;1.67;;;11.50;99.90;;;;;;4236585;28;20063;-84
2022/05/29 06:31:10;;;;;;;8.10;2.17;;;11.60;99.90;;;;;;4237556;28;20475;-84
2022/05/29 06:33:12;;;;;;;4.60;1.13;;;11.60;99.90;;;;;;4236804;28;20402;-84
2022/05/29 06:35:14;;;;;;;6.72;1.00;;;11.50;99.90;;;;;;4236819;28;20039;-84
2022/05/29 06:37:15;;;;;;;9.18;1.40;;;12.00;99.90;;;;;;4237171;28;20083;-84
2022/05/29 06:39:16;;;;;;;4.68;1.50;;;11.50;99.90;;;;;;4237790;28;20113;-84
2022/05/29 06:41:19;;;;;;;7.25;1.08;;;11.40;99.90;;;;;;4235641;28;20036;-84
2022/05/29 06:43:20;;;;;;;7.05;1.15;;;11.30;99.90;;;;;;4235581;28;20043;-84
2022/05/29 06:45:21;;;;;;;14.38;1.73;;;11.50;99.90;;;;;;4235994;28;20043;-84
2022/05/29 06:47:21;;;;;;;8.80;1.25;;;11.20;99.90;;;;;;4234440;28;20116;-84
2022/05/29 06:49:24;;;;;;;12.05;2.20;;;11.30;99.90;;;;;;4237264;28;20044;-84
2022/05/29 06:51:25;;;;;;;5.13;1.02;;;11.30;99.90;;;;;;4238735;28;20047;-83
2022/05/29 06:53:25;;;;;;;5.97;0.80;;;11.30;99.90;;;;;;4237628;28;20487;-84
2022/05/29 06:55:26;;;;;;;7.57;1.17;;;11.20;99.90;;;;;;4237092;28;20071;-84
2022/05/29 07:06:59;;;;;;;6.45;0.93;;;11.20;99.90;;;;;;4233545;28;20093;-84
2022/05/29 07:09:04;;;;;;;7.03;1.20;;;11.10;99.90;;;;;;4233224;28;20039;-84
2022/05/29 07:11:15;;;;;;;5.13;1.67;;;11.10;99.90;;;;;;4224561;28;20028;-85
2022/05/29 07:13:16;;;;;;;5.93;1.58;;;11.20;99.90;;;;;;4216834;28;20047;-84
2022/05/29 07:15:18;;;;;;;6.70;1.60;;;11.10;99.90;;;;;;4217850;28;20910;-84
2022/05/29 07:17:19;;;;;;;6.63;1.40;;;11.00;99.90;;;;;;4217445;28;20044;-84
2022/05/29 07:19:20;;;;;;;4.55;1.00;;;11.20;99.90;;;;;;4215745;28;20506;-86
2022/05/29 07:21:22;;;;;;;7.13;1.23;;;11.20;99.90;;;;;;4223806;28;20062;-84
2022/05/29 07:23:22;;;;;;;6.95;0.90;;;11.00;99.90;;;;;;4237215;27;20058;-84
2022/05/29 07:25:23;;;;;;;9.95;1.05;;;11.00;99.90;;;;;;4247781;27;20039;-85
2022/05/29 07:27:24;;;;;;;7.18;1.15;;;10.90;99.90;;;;;;4249429;27;20099;-85
2022/05/29 07:29:25;;;;;;;13.10;1.90;;;10.80;99.90;;;;;;4253374;27;20096;-85
2022/05/29 07:31:25;;;;;;;9.73;1.33;;;11.00;99.90;;;;;;4249875;27;20035;-84
2022/05/29 07:33:27;;;;;;;13.50;1.92;;;11.50;99.90;;;;;;4250652;27;20088;-85
2022/05/29 07:35:29;;;;;;;7.68;0.90;;;11.00;99.90;;;;;;4253384;27;20475;-85
2022/05/29 07:37:29;;;;;;;3.72;0.98;;;11.10;99.90;;;;;;4249169;27;20123;-84
2022/05/29 07:39:38;;;;;;;11.13;1.13;;;11.10;99.90;;;;;;4232288;28;20044;-84
2022/05/29 07:44:00;;;;;;;5.03;0.73;;;11.50;99.90;;;;;;4232311;27;20170;-84
2022/05/29 07:46:00;;;;;;;4.55;0.85;;;11.40;99.90;;;;;;4229551;28;20051;-84
2022/05/29 07:48:01;;;;;;;5.75;0.75;;;11.50;99.90;;;;;;4233391;27;20593;-84
2022/05/29 07:50:02;;;;;;;5.80;1.00;;;11.60;99.90;;;;;;4235723;27;20154;-84
2022/05/29 07:52:03;;;;;;;6.88;1.55;;;11.60;99.90;;;;;;4244202;27;20068;-85
2022/05/29 07:54:03;;;;;;;3.95;0.63;;;11.60;99.90;;;;;;4236291;27;20053;-84
2022/05/29 07:56:05;;;;;;;3.25;0.88;;;11.60;99.90;;;;;;4246394;27;20043;-87
2022/05/29 07:58:07;;;;;;;5.38;1.20;;;11.60;99.90;;;;;;4235678;27;20040;-87
2022/05/29 08:00:11;;;;;;;2.13;0.60;;;11.60;99.90;;;;;;4235814;27;20074;-86
2022/05/29 08:02:11;;;;;;;6.80;0.60;;;11.50;99.90;;;;;;4235870;27;20060;-86
2022/05/29 08:04:12;;;;;;;5.47;1.02;;;11.30;99.90;;;;;;4234499;27;20135;-86
2022/05/29 08:06:13;;;;;;;6.68;1.70;;;11.50;99.90;;;;;;4226082;28;20056;-86
2022/05/29 08:08:14;;;;;;;3.08;0.65;;;12.20;99.90;;;;;;4243886;27;20074;-87
2022/05/29 08:10:19;;;;;;;7.45;1.42;;;11.40;99.90;;;;;;4243985;27;20065;-87
2022/05/29 08:12:21;;;;;;;6.15;1.02;;;11.50;99.90;;;;;;4216996;28;20043;-86
2022/05/29 08:14:22;;;;;;;5.38;0.70;;;11.60;99.90;;;;;;4234698;27;20039;-86
2022/05/29 08:16:23;;;;;;;5.05;0.82;;;11.50;99.90;;;;;;4234924;27;20063;-87
2022/05/29 08:18:25;;;;;;;10.40;1.25;;;11.60;99.90;;;;;;4230819;28;20116;-86
2022/05/29 08:20:27;;;;;;;3.83;1.10;;;11.50;99.90;;;;;;4243285;27;20054;-86
2022/05/29 08:22:27;;;;;;;6.03;1.38;;;11.50;99.90;;;;;;4233670;27;20380;-86
2022/05/29 08:31:26;;;;;;;8.15;1.67;;;11.50;99.90;;;;;;4241899;27;20081;-86
2022/05/29 08:33:30;;;;;;;4.97;0.70;;;11.50;99.90;;;;;;4236936;28;20472;-86
2022/05/29 08:35:33;;;;;;;5.95;0.60;;;11.50;99.90;;;;;;4240716;27;20445;-86
2022/05/29 08:37:34;;;;;;;7.13;1.08;;;12.10;99.90;;;;;;4237238;28;20043;-86
2022/05/29 08:39:35;;;;;;;4.85;0.80;;;11.80;99.90;;;;;;4222198;28;20048;-86
2022/05/29 08:41:50;;;;;;;3.10;0.70;;;11.70;99.90;;;;;;4234888;28;20085;-86
2022/05/29 08:43:51;;;;;;;3.33;0.82;;;11.80;99.90;;;;;;4239650;28;20475;-86
2022/05/29 08:45:52;;;;;;;6.00;1.38;;;11.80;99.90;;;;;;4238385;28;20116;-86
2022/05/29 08:47:53;;;;;;;5.63;1.35;;;11.90;99.90;;;;;;4234289;28;20032;-86
2022/05/29 08:49:54;;;;;;;4.25;1.10;;;11.90;99.90;;;;;;4242006;28;20050;-86
2022/05/29 08:52:04;;;;;;;3.17;0.77;;;12.10;99.90;;;;;;4240446;27;20039;-86
2022/05/29 08:54:22;;;;;;;3.78;1.05;;;12.00;99.90;;;;;;4243527;27;20394;-86
2022/05/29 08:56:43;;;;;;;2.25;0.55;;;12.00;99.90;;;;;;4238607;27;20047;-86
2022/05/29 08:59:12;;;;;;;6.95;0.60;;;12.00;99.90;;;;;;4246555;27;20127;-86
2022/05/29 09:01:23;;;;;;;5.65;1.05;;;12.10;99.90;;;;;;4234400;27;20043;-87
2022/05/29 09:03:45;;;;;;;3.90;0.55;;;12.10;99.90;;;;;;4228902;28;20126;-86
2022/05/29 09:05:57;;;;;;;6.03;0.65;;;12.10;99.90;;;;;;4238060;27;20180;-86
2022/05/29 09:08:04;;;;;;;3.25;0.70;;;12.20;99.90;;;;;;4238503;27;20040;-86
2022/05/29 09:10:16;;;;;;;14.38;2.05;;;12.20;99.90;;;;;;4239488;27;20044;-85
2022/05/29 09:12:44;;;;;;;6.20;1.27;;;12.10;99.90;;;;;;4225681;28;20467;-86
2022/05/29 09:14:51;;;;;;;6.57;1.60;;;12.00;99.90;;;;;;4215975;28;20481;-86
2022/05/29 09:17:03;;;;;;;5.20;1.52;;;11.90;99.90;;;;;;4249689;27;20154;-85
2022/05/29 09:19:31;;;;;;;8.95;1.77;;;11.90;99.90;;;;;;4231196;28;20059;-85
2022/05/29 09:21:52;;;;;;;2.92;0.70;;;11.90;99.90;;;;;;4221863;28;20143;-86
2022/05/29 09:24:06;;;;;;;8.25;1.30;;;11.90;99.90;;;;;;4225140;28;20072;-86
2022/05/29 09:26:14;;;;;;;3.25;0.70;;;12.00;99.90;;;;;;4225721;28;20047;-85
2022/05/29 09:28:25;;;;;;;6.03;0.85;;;12.00;99.90;;;;;;4224883;28;20040;-85
2022/05/29 09:30:26;;;;;;;5.38;0.63;;;12.20;99.90;;;;;;4228958;28;20081;-85
2022/05/29 09:32:32;;;;;;;7.35;1.15;;;12.30;99.90;;;;;;4227467;28;20059;-85
2022/05/29 09:34:33;;;;;;;6.93;0.80;;;12.40;99.90;;;;;;4222641;28;20560;-85
2022/05/29 09:36:59;;;;;;;3.95;1.13;;;12.50;99.90;;;;;;4220673;28;20059;-86
2022/05/29 09:39:10;;;;;;;5.70;0.90;;;12.50;99.90;;;;;;4220534;28;20044;-86
2022/05/29 09:41:47;;;;;;;4.57;0.40;;;12.60;99.90;;;;;;4227557;28;20097;-85
2022/05/29 09:44:14;;;;;;;5.32;1.15;;;12.70;99.90;;;;;;4215560;28;20044;-84
2022/05/29 09:46:19;;;;;;;3.47;0.65;;;12.80;99.50;;;;;;4233731;28;20040;-84
2022/05/29 09:50:57;;;;;;;12.40;2.03;;;13.10;99.40;;;;;;4216388;28;20044;-83
2022/05/29 09:52:59;;;;;;;4.97;0.70;;;13.20;99.00;;;;;;4217863;28;20055;-84
2022/05/29 09:55:17;;;;;;;4.85;1.08;;;13.30;98.60;;;;;;4218117;28;20052;-84
2022/05/29 09:57:23;;;;;;;6.82;1.02;;;13.40;98.40;;;;;;4223371;28;20131;-83
2022/05/29 09:59:26;;;;;;;6.82;1.80;;;13.40;98.30;;;;;;4235248;28;20044;-83
2022/05/29 10:01:34;;;;;;;10.57;1.00;;;13.40;98.20;;;;;;4234775;28;20047;-84
2022/05/29 10:03:40;;;;;;;7.68;1.30;;;13.40;98.10;;;;;;4231097;28;20054;-84
2022/05/29 10:05:42;;;;;;;9.43;0.93;;;13.30;98.20;;;;;;4232681;28;20103;-84
2022/05/29 10:07:46;;;;;;;5.90;1.35;;;13.20;98.20;;;;;;4228987;28;20055;-83
2022/05/29 10:09:59;;;;;;;13.88;1.83;;;13.10;98.40;;;;;;4215621;28;20044;-83
2022/05/29 10:12:16;;;;;;;8.00;1.27;;;13.10;98.80;;;;;;4215506;28;20052;-82
2022/05/29 10:14:26;;;;;;;7.95;0.82;;;13.00;99.00;;;;;;4215399;28;20156;-82
2022/05/29 10:16:38;;;;;;;10.35;1.70;;;12.90;99.30;;;;;;4215926;28;20052;-83
2022/05/29 10:18:42;;;;;;;7.28;1.10;;;12.90;99.40;;;;;;4216091;28;20397;-83
2022/05/29 10:20:44;;;;;;;9.05;1.02;;;12.80;99.50;;;;;;4217179;28;20039;-83
2022/05/29 10:22:45;;;;;;;6.63;0.90;;;12.80;99.70;;;;;;4232807;28;20384;-83
2022/05/29 10:24:48;;;;;;;10.43;1.38;;;12.80;99.70;;;;;;4214246;28;20094;-83
2022/05/29 10:26:55;;;;;;;2.95;0.70;;;12.80;99.70;;;;;;4232272;28;20047;-83
2022/05/29 10:28:56;;;;;;;6.95;1.08;;;12.90;99.80;;;;;;4232556;28;20076;-83
2022/05/29 10:31:00;;;;;;;3.45;0.68;;;13.10;99.70;;;;;;4232483;28;20114;-83
2022/05/29 10:33:05;;;;;;;4.93;1.00;;;;;;;;;;4232758;28;20100;-83
2022/05/29 10:35:14;;;;;;;8.70;0.95;;;13.30;99.90;;;;;;4232342;28;20054;-83
2022/05/29 10:37:35;;;;;;;;;;;13.50;99.00;;;;;;4233060;28;20047;-83
2022/05/29 10:39:35;;;;;;;5.50;0.65;;;13.60;98.50;;;;;;4232426;28;19920;-83
2022/05/29 10:41:39;;;;;;;6.18;0.80;;;13.60;98.80;;;;;;4231016;28;20049;-83
2022/05/29 10:43:46;;;;;;;4.60;0.90;;;13.60;99.00;;;;;;4232322;28;20107;-83
2022/05/29 10:45:47;;;;;;;6.45;1.00;;;13.50;99.40;;;;;;4213672;28;20229;-83
2022/05/29 10:48:14;;;;;;;4.55;0.52;;;13.50;99.40;;;;;;4230821;28;20492;-83
2022/05/29 10:50:23;;;;;;;6.60;0.90;;;13.40;99.50;;;;;;4213341;28;20055;-83
2022/05/29 10:52:35;;;;;;;9.77;1.08;;;13.40;99.70;;;;;;4231974;28;20042;-83
2022/05/29 10:54:58;;;;;;;9.35;1.48;;;13.40;99.60;;;;;;4231717;28;20044;-84
2022/05/29 10:57:08;;;;;;;8.20;1.08;;;13.40;99.60;;;;;;4232128;28;20415;-83
2022/05/29 10:59:32;;;;;;;7.35;1.45;;;13.50;99.60;;;;;;4231973;28;20055;-83
2022/05/29 11:04:17;;;;;;;6.75;1.00;;;;;;;;;;4213815;28;20048;-84
2022/05/29 11:06:33;;;;;;;6.82;0.70;;;13.50;99.10;;;;;;4231877;28;20040;-84
2022/05/29 11:09:02;;;;;;;5.88;1.58;;;13.70;98.70;;;;;;4231642;28;20047;-84
2022/05/29 11:11:11;;;;;;;4.57;1.17;;;13.70;98.30;;;;;;4231383;28;20135;-83
2022/05/29 11:13:24;;;;;;;9.32;1.52;;;13.70;98.30;;;;;;4231418;28;20503;-83
2022/05/29 11:16:03;;;;;;;5.85;1.27;;;13.70;98.30;;;;;;4230940;28;20083;-83
2022/05/29 11:18:42;;;;;;;7.80;1.27;;;14.00;98.00;;;;;;4230377;28;20091;-83
2022/05/29 11:20:55;;;;;;;5.65;1.33;;;13.70;98.20;;;;;;4230188;28;20047;-83
2022/05/29 11:23:12;;;;;;;7.80;1.63;;;13.70;98.40;;;;;;4231418;28;20399;-83
2022/05/29 11:25:43;;;;;;;9.77;1.30;;;13.70;98.50;;;;;;4230751;28;20047;-84
2022/05/29 11:28:04;;;;;;;5.22;0.75;;;13.70;98.40;;;;;;4229417;28;20048;-84
2022/05/29 11:30:28;;;;;;;6.95;1.30;;;13.80;98.20;;;;;;4231030;28;20096;-83